sensor_id;sensor_type;location;lat;lon;timestamp;temperature;humidity
14531;DHT22;7352;50.866;4.366;2023-03-21T00:00:00;13.30;99.90
14531;DHT22;7352;50.866;4.366;2023-03-21T00:02:27;13.30;99.90
14531;DHT22;7352;50.866;4.366;2023-03-21T00:04:54;13.30;99.90
14531;DHT22;7352;50.866;4.366;2023-03-21T00:07:21;13.40;99.90
14531;DHT22;7352;50.866;4.366;2023-03-21T00:09:48;13.50;99.90
14531;DHT22;7352;50.866;4.366;2023-03-21T00:12:15;13.50;99.90
14531;DHT22;7352;50.866;4.366;2023-03-21T00:14:46;13.30;99.90
14531;DHT22;7352;50.866;4.366;2023-03-21T00:17:13;13.20;99.90
14531;DHT22;7352;50.866;4.366;2023-03-21T00:19:41;13.30;99.90
14531;DHT22;7352;50.866;4.366;2023-03-21T00:22:09;13.50;99.90
14531;DHT22;7352;50.866;4.366;2023-03-21T00:24:36;13.20;99.90
14531;DHT22;7352;50.866;4.366;2023-03-21T00:27:03;13.20;99.90
14531;DHT22;7352;50.866;4.366;2023-03-21T00:29:30;13.30;99.90
14531;DHT22;7352;50.866;4.366;2023-03-21T00:32:00;13.20;99.90
14531;DHT22;7352;50.866;4.366;2023-03-21T00:34:26;13.30;99.90
14531;DHT22;7352;50.866;4.366;2023-03-21T00:36:53;13.20;99.90
14531;DHT22;7352;50.866;4.366;2023-03-21T00:39:20;13.20;99.90
14531;DHT22;7352;50.866;4.366;2023-03-21T00:41:48;13.10;99.90
14531;DHT22;7352;50.866;4.366;2023-03-21T00:44:15;13.10;99.90
14531;DHT22;7352;50.866;4.366;2023-03-21T00:46:43;13.10;99.90
14531;DHT22;7352;50.866;4.366;2023-03-21T00:49:11;13.10;99.90
14531;DHT22;7352;50.866;4.366;2023-03-21T00:51:38;13.20;99.90
14531;DHT22;7352;50.866;4.366;2023-03-21T00:54:09;13.30;99.90
14531;DHT22;7352;50.866;4.366;2023-03-21T00:56:36;13.20;99.90
14531;DHT22;7352;50.866;4.366;2023-03-21T00:59:04;13.20;99.90
14531;DHT22;7352;50.866;4.366;2023-03-21T01:01:31;13.20;99.90
14531;DHT22;7352;50.866;4.366;2023-03-21T01:03:59;13.30;99.90
14531;DHT22;7352;50.866;4.366;2023-03-21T01:06:34;13.40;99.90
14531;DHT22;7352;50.866;4.366;2023-03-21T01:09:04;13.30;99.90
14531;DHT22;7352;50.866;4.366;2023-03-21T01:11:32;13.20;99.90
14531;DHT22;7352;50.866;4.366;2023-03-21T01:14:00;13.20;99.90
14531;DHT22;7352;50.866;4.366;2023-03-21T01:16:27;13.20;99.90
14531;DHT22;7352;50.866;4.366;2023-03-21T01:18:54;13.20;99.90
14531;DHT22;7352;50.866;4.366;2023-03-21T01:21:21;13.10;99.90
14531;DHT22;7352;50.866;4.366;2023-03-21T01:23:50;13.00;99.90
14531;DHT22;7352;50.866;4.366;2023-03-21T01:26:17;13.10;99.90
14531;DHT22;7352;50.866;4.366;2023-03-21T01:28:45;13.20;99.90
14531;DHT22;7352;50.866;4.366;2023-03-21T01:31:14;13.20;99.90
14531;DHT22;7352;50.866;4.366;2023-03-21T01:33:42;13.30;99.90
14531;DHT22;7352;50.866;4.366;2023-03-21T01:36:14;13.30;99.90
14531;DHT22;7352;50.866;4.366;2023-03-21T01:38:41;13.20;99.90
14531;DHT22;7352;50.866;4.366;2023-03-21T01:41:17;13.30;99.90
14531;DHT22;7352;50.866;4.366;2023-03-21T01:43:46;13.10;99.90
14531;DHT22;7352;50.866;4.366;2023-03-21T01:46:24;13.20;99.90
14531;DHT22;7352;50.866;4.366;2023-03-21T01:48:55;13.30;99.90
14531;DHT22;7352;50.866;4.366;2023-03-21T01:51:24;13.30;99.90
14531;DHT22;7352;50.866;4.366;2023-03-21T01:53:53;13.20;99.90
14531;DHT22;7352;50.866;4.366;2023-03-21T01:56:25;13.20;99.90
14531;DHT22;7352;50.866;4.366;2023-03-21T01:58:57;13.20;99.90
14531;DHT22;7352;50.866;4.366;2023-03-21T02:01:28;13.10;99.90
14531;DHT22;7352;50.866;4.366;2023-03-21T02:03:56;13.20;99.90
14531;DHT22;7352;50.866;4.366;2023-03-21T02:06:35;13.30;99.90
14531;DHT22;7352;50.866;4.366;2023-03-21T02:09:07;13.10;99.90
14531;DHT22;7352;50.866;4.366;2023-03-21T02:11:37;13.10;99.90
14531;DHT22;7352;50.866;4.366;2023-03-21T02:14:04;13.20;99.90
14531;DHT22;7352;50.866;4.366;2023-03-21T02:16:45;13.30;99.90
14531;DHT22;7352;50.866;4.366;2023-03-21T02:19:40;13.40;99.90
14531;DHT22;7352;50.866;4.366;2023-03-21T02:28:18;13.30;99.90
14531;DHT22;7352;50.866;4.366;2023-03-21T02:31:13;13.40;99.90
14531;DHT22;7352;50.866;4.366;2023-03-21T02:37:03;13.30;99.90
14531;DHT22;7352;50.866;4.366;2023-03-21T02:39:39;13.30;99.90
14531;DHT22;7352;50.866;4.366;2023-03-21T02:42:14;13.30;99.90
14531;DHT22;7352;50.866;4.366;2023-03-21T02:44:45;13.30;99.90
14531;DHT22;7352;50.866;4.366;2023-03-21T02:47:18;13.30;99.90
14531;DHT22;7352;50.866;4.366;2023-03-21T02:49:51;13.30;99.90
14531;DHT22;7352;50.866;4.366;2023-03-21T02:52:23;13.40;99.90
14531;DHT22;7352;50.866;4.366;2023-03-21T02:54:52;13.30;99.90
14531;DHT22;7352;50.866;4.366;2023-03-21T02:57:20;13.30;99.90
14531;DHT22;7352;50.866;4.366;2023-03-21T02:59:48;13.30;99.90
14531;DHT22;7352;50.866;4.366;2023-03-21T03:02:21;13.40;99.90
14531;DHT22;7352;50.866;4.366;2023-03-21T03:04:48;13.30;99.90
14531;DHT22;7352;50.866;4.366;2023-03-21T03:07:25;13.30;99.90
14531;DHT22;7352;50.866;4.366;2023-03-21T03:10:06;13.30;99.90
14531;DHT22;7352;50.866;4.366;2023-03-21T03:12:42;13.30;99.90
14531;DHT22;7352;50.866;4.366;2023-03-21T03:15:18;13.30;99.90
14531;DHT22;7352;50.866;4.366;2023-03-21T03:17:52;13.30;99.90
14531;DHT22;7352;50.866;4.366;2023-03-21T03:20:26;13.30;99.90
14531;DHT22;7352;50.866;4.366;2023-03-21T03:23:01;13.30;99.90
14531;DHT22;7352;50.866;4.366;2023-03-21T03:25:35;13.40;99.90
14531;DHT22;7352;50.866;4.366;2023-03-21T03:28:05;13.50;99.90
14531;DHT22;7352;50.866;4.366;2023-03-21T03:30:34;13.50;99.90
14531;DHT22;7352;50.866;4.366;2023-03-21T03:33:04;13.50;99.90
14531;DHT22;7352;50.866;4.366;2023-03-21T03:35:32;13.50;99.90
14531;DHT22;7352;50.866;4.366;2023-03-21T03:38:04;13.50;99.90
14531;DHT22;7352;50.866;4.366;2023-03-21T03:40:38;13.60;99.90
14531;DHT22;7352;50.866;4.366;2023-03-21T03:43:09;13.60;99.90
14531;DHT22;7352;50.866;4.366;2023-03-21T03:45:42;13.60;99.90
14531;DHT22;7352;50.866;4.366;2023-03-21T03:48:15;13.50;99.90
14531;DHT22;7352;50.866;4.366;2023-03-21T03:50:47;13.60;99.90
14531;DHT22;7352;50.866;4.366;2023-03-21T03:53:19;13.70;99.90
14531;DHT22;7352;50.866;4.366;2023-03-21T03:55:48;13.70;99.90
14531;DHT22;7352;50.866;4.366;2023-03-21T03:58:17;13.80;99.90
14531;DHT22;7352;50.866;4.366;2023-03-21T04:00:45;13.70;99.90
14531;DHT22;7352;50.866;4.366;2023-03-21T04:03:12;13.70;99.90
14531;DHT22;7352;50.866;4.366;2023-03-21T04:05:39;13.60;99.90
14531;DHT22;7352;50.866;4.366;2023-03-21T04:08:06;13.70;99.90
14531;DHT22;7352;50.866;4.366;2023-03-21T04:10:35;13.70;99.90
14531;DHT22;7352;50.866;4.366;2023-03-21T04:13:02;13.80;99.90
14531;DHT22;7352;50.866;4.366;2023-03-21T04:15:29;13.80;99.90
14531;DHT22;7352;50.866;4.366;2023-03-21T04:17:56;13.80;99.90
14531;DHT22;7352;50.866;4.366;2023-03-21T04:20:23;13.70;99.90
14531;DHT22;7352;50.866;4.366;2023-03-21T04:22:50;13.90;99.90
14531;DHT22;7352;50.866;4.366;2023-03-21T04:25:18;13.60;99.90
14531;DHT22;7352;50.866;4.366;2023-03-21T04:27:47;13.60;99.90
14531;DHT22;7352;50.866;4.366;2023-03-21T04:30:14;13.50;99.90
14531;DHT22;7352;50.866;4.366;2023-03-21T04:32:42;13.60;99.90
14531;DHT22;7352;50.866;4.366;2023-03-21T04:35:10;13.70;99.90
14531;DHT22;7352;50.866;4.366;2023-03-21T04:37:37;13.60;99.90
14531;DHT22;7352;50.866;4.366;2023-03-21T04:40:07;13.60;99.90
14531;DHT22;7352;50.866;4.366;2023-03-21T04:42:34;13.50;99.90
14531;DHT22;7352;50.866;4.366;2023-03-21T04:45:03;13.50;99.90
14531;DHT22;7352;50.866;4.366;2023-03-21T04:47:30;13.40;99.90
14531;DHT22;7352;50.866;4.366;2023-03-21T04:49:58;13.30;99.90
14531;DHT22;7352;50.866;4.366;2023-03-21T04:52:25;13.30;99.90
14531;DHT22;7352;50.866;4.366;2023-03-21T04:54:52;13.30;99.90
14531;DHT22;7352;50.866;4.366;2023-03-21T04:57:19;13.40;99.90
14531;DHT22;7352;50.866;4.366;2023-03-21T04:59:46;13.50;99.90
14531;DHT22;7352;50.866;4.366;2023-03-21T05:02:14;13.50;99.90
14531;DHT22;7352;50.866;4.366;2023-03-21T05:04:41;13.50;99.90
14531;DHT22;7352;50.866;4.366;2023-03-21T05:07:08;13.60;99.90
14531;DHT22;7352;50.866;4.366;2023-03-21T05:09:35;13.60;99.90
14531;DHT22;7352;50.866;4.366;2023-03-21T05:12:03;13.50;99.90
14531;DHT22;7352;50.866;4.366;2023-03-21T05:14:30;13.50;99.90
14531;DHT22;7352;50.866;4.366;2023-03-21T05:16:56;13.40;99.90
14531;DHT22;7352;50.866;4.366;2023-03-21T05:19:27;13.40;99.90
14531;DHT22;7352;50.866;4.366;2023-03-21T05:22:00;13.30;99.90
14531;DHT22;7352;50.866;4.366;2023-03-21T05:24:29;13.20;99.90
14531;DHT22;7352;50.866;4.366;2023-03-21T05:26:57;13.20;99.90
14531;DHT22;7352;50.866;4.366;2023-03-21T05:29:29;13.10;99.90
14531;DHT22;7352;50.866;4.366;2023-03-21T05:31:57;13.00;99.90
14531;DHT22;7352;50.866;4.366;2023-03-21T05:34:26;13.20;99.90
14531;DHT22;7352;50.866;4.366;2023-03-21T05:36:54;13.20;99.90
14531;DHT22;7352;50.866;4.366;2023-03-21T05:39:21;13.20;99.90
14531;DHT22;7352;50.866;4.366;2023-03-21T05:41:48;13.20;99.90
14531;DHT22;7352;50.866;4.366;2023-03-21T05:44:15;13.20;99.90
14531;DHT22;7352;50.866;4.366;2023-03-21T05:46:42;13.40;99.90
14531;DHT22;7352;50.866;4.366;2023-03-21T05:49:09;13.30;99.90
14531;DHT22;7352;50.866;4.366;2023-03-21T05:51:38;13.50;99.90
14531;DHT22;7352;50.866;4.366;2023-03-21T05:54:05;13.40;99.90
14531;DHT22;7352;50.866;4.366;2023-03-21T05:56:32;13.30;99.90
14531;DHT22;7352;50.866;4.366;2023-03-21T05:58:59;13.50;99.90
14531;DHT22;7352;50.866;4.366;2023-03-21T06:01:26;13.50;99.90
14531;DHT22;7352;50.866;4.366;2023-03-21T06:03:53;13.40;99.90
14531;DHT22;7352;50.866;4.366;2023-03-21T06:06:20;13.20;99.90
14531;DHT22;7352;50.866;4.366;2023-03-21T06:08:48;13.20;99.90
14531;DHT22;7352;50.866;4.366;2023-03-21T06:11:21;13.00;99.90
14531;DHT22;7352;50.866;4.366;2023-03-21T06:13:49;13.10;99.90
14531;DHT22;7352;50.866;4.366;2023-03-21T06:16:16;13.20;99.90
14531;DHT22;7352;50.866;4.366;2023-03-21T06:18:43;13.10;99.90
14531;DHT22;7352;50.866;4.366;2023-03-21T06:21:10;13.10;99.90
14531;DHT22;7352;50.866;4.366;2023-03-21T06:23:37;13.10;99.90
14531;DHT22;7352;50.866;4.366;2023-03-21T06:26:06;13.00;99.90
14531;DHT22;7352;50.866;4.366;2023-03-21T06:28:33;12.80;99.90
14531;DHT22;7352;50.866;4.366;2023-03-21T06:31:00;12.60;99.90
14531;DHT22;7352;50.866;4.366;2023-03-21T06:33:27;12.70;99.90
14531;DHT22;7352;50.866;4.366;2023-03-21T06:35:55;12.80;99.90
14531;DHT22;7352;50.866;4.366;2023-03-21T06:38:23;13.00;99.90
14531;DHT22;7352;50.866;4.366;2023-03-21T06:40:51;12.90;99.90
14531;DHT22;7352;50.866;4.366;2023-03-21T06:43:20;12.70;99.90
14531;DHT22;7352;50.866;4.366;2023-03-21T06:45:47;12.80;99.90
14531;DHT22;7352;50.866;4.366;2023-03-21T06:48:14;12.80;99.90
14531;DHT22;7352;50.866;4.366;2023-03-21T06:50:41;12.80;99.90
14531;DHT22;7352;50.866;4.366;2023-03-21T06:53:08;12.90;99.90
14531;DHT22;7352;50.866;4.366;2023-03-21T06:55:35;12.90;99.90
14531;DHT22;7352;50.866;4.366;2023-03-21T06:58:03;13.10;99.90
14531;DHT22;7352;50.866;4.366;2023-03-21T07:00:32;13.00;99.90
14531;DHT22;7352;50.866;4.366;2023-03-21T07:02:59;13.10;99.90
14531;DHT22;7352;50.866;4.366;2023-03-21T07:05:26;13.10;99.90
14531;DHT22;7352;50.866;4.366;2023-03-21T07:07:53;13.10;99.90
14531;DHT22;7352;50.866;4.366;2023-03-21T07:10:20;13.00;99.90
14531;DHT22;7352;50.866;4.366;2023-03-21T07:12:47;13.20;99.90
14531;DHT22;7352;50.866;4.366;2023-03-21T07:15:14;13.20;99.90
14531;DHT22;7352;50.866;4.366;2023-03-21T07:17:42;13.20;99.90
14531;DHT22;7352;50.866;4.366;2023-03-21T07:20:10;13.20;99.90
14531;DHT22;7352;50.866;4.366;2023-03-21T07:22:39;13.20;99.90
14531;DHT22;7352;50.866;4.366;2023-03-21T07:25:06;13.20;99.90
14531;DHT22;7352;50.866;4.366;2023-03-21T07:27:34;13.30;99.90
14531;DHT22;7352;50.866;4.366;2023-03-21T07:30:01;13.40;99.90
14531;DHT22;7352;50.866;4.366;2023-03-21T07:32:31;13.50;99.90
14531;DHT22;7352;50.866;4.366;2023-03-21T07:35:00;13.60;99.90
14531;DHT22;7352;50.866;4.366;2023-03-21T07:37:28;13.60;99.90
14531;DHT22;7352;50.866;4.366;2023-03-21T07:39:55;13.60;99.90
14531;DHT22;7352;50.866;4.366;2023-03-21T07:42:22;13.60;99.90
14531;DHT22;7352;50.866;4.366;2023-03-21T07:44:49;13.50;99.90
14531;DHT22;7352;50.866;4.366;2023-03-21T07:47:19;13.50;99.90
14531;DHT22;7352;50.866;4.366;2023-03-21T07:49:46;13.40;99.90
14531;DHT22;7352;50.866;4.366;2023-03-21T07:52:16;13.20;99.90
14531;DHT22;7352;50.866;4.366;2023-03-21T07:54:43;13.20;99.90
14531;DHT22;7352;50.866;4.366;2023-03-21T07:57:10;13.20;99.90
14531;DHT22;7352;50.866;4.366;2023-03-21T07:59:38;13.20;99.90
14531;DHT22;7352;50.866;4.366;2023-03-21T08:02:05;13.20;99.90
14531;DHT22;7352;50.866;4.366;2023-03-21T08:04:32;13.20;99.90
14531;DHT22;7352;50.866;4.366;2023-03-21T08:07:00;13.10;99.90
14531;DHT22;7352;50.866;4.366;2023-03-21T08:09:29;13.30;99.90
14531;DHT22;7352;50.866;4.366;2023-03-21T08:11:55;13.30;99.90
14531;DHT22;7352;50.866;4.366;2023-03-21T08:14:23;13.20;99.90
14531;DHT22;7352;50.866;4.366;2023-03-21T08:16:50;13.20;99.90
14531;DHT22;7352;50.866;4.366;2023-03-21T08:19:17;13.40;99.90
14531;DHT22;7352;50.866;4.366;2023-03-21T08:21:47;13.50;99.90
14531;DHT22;7352;50.866;4.366;2023-03-21T08:24:15;13.50;99.90
14531;DHT22;7352;50.866;4.366;2023-03-21T08:26:44;13.50;99.90
14531;DHT22;7352;50.866;4.366;2023-03-21T08:29:11;13.60;99.90
14531;DHT22;7352;50.866;4.366;2023-03-21T08:31:38;13.80;99.90
14531;DHT22;7352;50.866;4.366;2023-03-21T08:34:06;13.80;99.90
14531;DHT22;7352;50.866;4.366;2023-03-21T08:36:35;13.90;99.90
14531;DHT22;7352;50.866;4.366;2023-03-21T08:39:02;14.00;99.90
14531;DHT22;7352;50.866;4.366;2023-03-21T08:41:30;13.90;99.90
14531;DHT22;7352;50.866;4.366;2023-03-21T08:43:58;13.90;99.90
14531;DHT22;7352;50.866;4.366;2023-03-21T08:46:26;13.90;99.90
14531;DHT22;7352;50.866;4.366;2023-03-21T08:48:52;13.80;99.90
14531;DHT22;7352;50.866;4.366;2023-03-21T08:51:20;14.00;99.90
14531;DHT22;7352;50.866;4.366;2023-03-21T08:53:47;13.90;99.90
14531;DHT22;7352;50.866;4.366;2023-03-21T08:56:16;13.90;99.90
14531;DHT22;7352;50.866;4.366;2023-03-21T08:58:43;14.00;99.90
14531;DHT22;7352;50.866;4.366;2023-03-21T09:01:13;14.10;99.90
14531;DHT22;7352;50.866;4.366;2023-03-21T09:03:41;14.40;99.90
14531;DHT22;7352;50.866;4.366;2023-03-21T09:06:09;14.40;99.90
14531;DHT22;7352;50.866;4.366;2023-03-21T09:08:39;14.40;99.90
14531;DHT22;7352;50.866;4.366;2023-03-21T09:11:08;14.40;99.90
14531;DHT22;7352;50.866;4.366;2023-03-21T09:13:36;14.70;99.90
14531;DHT22;7352;50.866;4.366;2023-03-21T09:16:05;14.60;99.90
14531;DHT22;7352;50.866;4.366;2023-03-21T09:18:33;14.60;99.90
14531;DHT22;7352;50.866;4.366;2023-03-21T09:21:20;14.50;99.90
14531;DHT22;7352;50.866;4.366;2023-03-21T09:23:48;14.50;99.90
14531;DHT22;7352;50.866;4.366;2023-03-21T09:26:18;14.60;99.90
14531;DHT22;7352;50.866;4.366;2023-03-21T09:28:46;14.60;99.90
14531;DHT22;7352;50.866;4.366;2023-03-21T09:31:14;14.60;99.90
14531;DHT22;7352;50.866;4.366;2023-03-21T09:33:48;14.60;99.90
14531;DHT22;7352;50.866;4.366;2023-03-21T09:36:15;14.50;99.90
14531;DHT22;7352;50.866;4.366;2023-03-21T09:38:47;14.60;99.90
14531;DHT22;7352;50.866;4.366;2023-03-21T09:41:24;14.60;99.90
14531;DHT22;7352;50.866;4.366;2023-03-21T09:44:01;14.80;99.90
14531;DHT22;7352;50.866;4.366;2023-03-21T09:46:35;14.70;99.90
14531;DHT22;7352;50.866;4.366;2023-03-21T09:49:14;14.80;99.90
14531;DHT22;7352;50.866;4.366;2023-03-21T09:51:46;14.80;99.90
14531;DHT22;7352;50.866;4.366;2023-03-21T09:54:19;14.90;99.90
14531;DHT22;7352;50.866;4.366;2023-03-21T09:56:48;15.00;99.90
14531;DHT22;7352;50.866;4.366;2023-03-21T09:59:22;15.10;99.90
14531;DHT22;7352;50.866;4.366;2023-03-21T10:01:55;15.00;99.90
14531;DHT22;7352;50.866;4.366;2023-03-21T10:04:24;15.00;99.90
14531;DHT22;7352;50.866;4.366;2023-03-21T10:06:55;15.20;99.90
14531;DHT22;7352;50.866;4.366;2023-03-21T10:09:26;15.30;99.90
14531;DHT22;7352;50.866;4.366;2023-03-21T10:11:57;15.20;99.90
14531;DHT22;7352;50.866;4.366;2023-03-21T10:14:29;15.10;99.90
14531;DHT22;7352;50.866;4.366;2023-03-21T10:17:00;15.20;99.90
14531;DHT22;7352;50.866;4.366;2023-03-21T10:19:29;15.30;99.90
14531;DHT22;7352;50.866;4.366;2023-03-21T10:21:56;15.20;99.90
14531;DHT22;7352;50.866;4.366;2023-03-21T10:24:25;15.30;99.90
14531;DHT22;7352;50.866;4.366;2023-03-21T10:26:54;15.30;99.90
14531;DHT22;7352;50.866;4.366;2023-03-21T10:29:23;15.40;99.90
14531;DHT22;7352;50.866;4.366;2023-03-21T10:31:52;15.50;99.90
14531;DHT22;7352;50.866;4.366;2023-03-21T10:34:25;15.70;99.90
14531;DHT22;7352;50.866;4.366;2023-03-21T10:37:14;15.70;99.90
14531;DHT22;7352;50.866;4.366;2023-03-21T10:39:54;15.70;99.90
14531;DHT22;7352;50.866;4.366;2023-03-21T10:42:25;15.80;99.90
14531;DHT22;7352;50.866;4.366;2023-03-21T10:44:53;15.80;99.90
14531;DHT22;7352;50.866;4.366;2023-03-21T10:47:23;16.00;99.90
14531;DHT22;7352;50.866;4.366;2023-03-21T10:49:50;16.00;99.90
14531;DHT22;7352;50.866;4.366;2023-03-21T10:52:21;16.00;99.90
14531;DHT22;7352;50.866;4.366;2023-03-21T10:54:49;16.00;99.90
14531;DHT22;7352;50.866;4.366;2023-03-21T10:57:29;15.90;99.90
14531;DHT22;7352;50.866;4.366;2023-03-21T10:59:58;15.90;99.90
14531;DHT22;7352;50.866;4.366;2023-03-21T11:02:29;15.70;99.90
14531;DHT22;7352;50.866;4.366;2023-03-21T11:05:03;15.50;99.90
14531;DHT22;7352;50.866;4.366;2023-03-21T11:07:34;15.50;99.90
14531;DHT22;7352;50.866;4.366;2023-03-21T11:10:11;15.70;99.90
14531;DHT22;7352;50.866;4.366;2023-03-21T11:12:41;15.80;99.90
14531;DHT22;7352;50.866;4.366;2023-03-21T11:15:26;15.80;99.90
14531;DHT22;7352;50.866;4.366;2023-03-21T11:17:54;15.70;99.90
14531;DHT22;7352;50.866;4.366;2023-03-21T11:20:22;15.70;99.90
14531;DHT22;7352;50.866;4.366;2023-03-21T11:22:53;15.70;99.90
14531;DHT22;7352;50.866;4.366;2023-03-21T11:25:24;15.50;99.90
14531;DHT22;7352;50.866;4.366;2023-03-21T11:27:54;15.50;99.90
14531;DHT22;7352;50.866;4.366;2023-03-21T11:30:22;15.70;99.90
14531;DHT22;7352;50.866;4.366;2023-03-21T11:32:53;15.60;99.90
14531;DHT22;7352;50.866;4.366;2023-03-21T11:35:22;15.80;99.90
14531;DHT22;7352;50.866;4.366;2023-03-21T11:37:52;15.80;99.90
14531;DHT22;7352;50.866;4.366;2023-03-21T11:40:24;15.70;99.90
14531;DHT22;7352;50.866;4.366;2023-03-21T11:42:53;15.70;99.90
14531;DHT22;7352;50.866;4.366;2023-03-21T11:45:24;15.70;99.90
14531;DHT22;7352;50.866;4.366;2023-03-21T11:47:56;15.60;99.90
14531;DHT22;7352;50.866;4.366;2023-03-21T11:50:30;15.60;99.90
14531;DHT22;7352;50.866;4.366;2023-03-21T11:53:25;15.60;99.90
14531;DHT22;7352;50.866;4.366;2023-03-21T11:56:02;15.80;99.90
14531;DHT22;7352;50.866;4.366;2023-03-21T11:58:42;16.00;99.90
14531;DHT22;7352;50.866;4.366;2023-03-21T12:01:17;16.00;99.90
14531;DHT22;7352;50.866;4.366;2023-03-21T12:03:50;15.90;99.90
14531;DHT22;7352;50.866;4.366;2023-03-21T12:06:25;15.90;99.90
14531;DHT22;7352;50.866;4.366;2023-03-21T12:09:03;16.10;99.90
14531;DHT22;7352;50.866;4.366;2023-03-21T12:11:38;16.10;99.90
14531;DHT22;7352;50.866;4.366;2023-03-21T12:14:14;16.10;99.90
14531;DHT22;7352;50.866;4.366;2023-03-21T12:16:57;16.30;99.90
14531;DHT22;7352;50.866;4.366;2023-03-21T12:19:52;16.10;99.90
14531;DHT22;7352;50.866;4.366;2023-03-21T12:22:27;16.00;99.90
14531;DHT22;7352;50.866;4.366;2023-03-21T12:25:03;16.10;99.90
14531;DHT22;7352;50.866;4.366;2023-03-21T12:27:38;16.00;99.90
14531;DHT22;7352;50.866;4.366;2023-03-21T12:30:26;16.10;99.90
14531;DHT22;7352;50.866;4.366;2023-03-21T12:33:10;16.10;99.90
14531;DHT22;7352;50.866;4.366;2023-03-21T12:35:56;16.20;99.90
14531;DHT22;7352;50.866;4.366;2023-03-21T12:38:33;16.50;99.90
14531;DHT22;7352;50.866;4.366;2023-03-21T12:41:24;16.60;99.90
14531;DHT22;7352;50.866;4.366;2023-03-21T12:43:59;16.70;99.90
14531;DHT22;7352;50.866;4.366;2023-03-21T12:46:30;16.70;99.90
14531;DHT22;7352;50.866;4.366;2023-03-21T12:49:01;16.90;99.90
14531;DHT22;7352;50.866;4.366;2023-03-21T12:51:32;16.90;99.90
14531;DHT22;7352;50.866;4.366;2023-03-21T12:54:11;16.90;99.90
14531;DHT22;7352;50.866;4.366;2023-03-21T12:56:49;17.10;99.90
14531;DHT22;7352;50.866;4.366;2023-03-21T12:59:24;17.00;99.90
14531;DHT22;7352;50.866;4.366;2023-03-21T13:01:55;16.80;99.90
14531;DHT22;7352;50.866;4.366;2023-03-21T13:04:36;16.90;99.90
14531;DHT22;7352;50.866;4.366;2023-03-21T13:07:08;17.10;99.90
14531;DHT22;7352;50.866;4.366;2023-03-21T13:09:37;17.10;99.90
14531;DHT22;7352;50.866;4.366;2023-03-21T13:15:27;17.10;99.90
14531;DHT22;7352;50.866;4.366;2023-03-21T13:18:03;17.10;99.90
14531;DHT22;7352;50.866;4.366;2023-03-21T13:20:41;17.00;99.90
14531;DHT22;7352;50.866;4.366;2023-03-21T13:23:10;17.10;99.90
14531;DHT22;7352;50.866;4.366;2023-03-21T13:25:42;17.10;99.90
14531;DHT22;7352;50.866;4.366;2023-03-21T13:28:17;17.10;99.90
14531;DHT22;7352;50.866;4.366;2023-03-21T13:30:48;16.90;99.90
14531;DHT22;7352;50.866;4.366;2023-03-21T13:33:21;17.00;99.90
14531;DHT22;7352;50.866;4.366;2023-03-21T13:36:03;17.20;99.90
14531;DHT22;7352;50.866;4.366;2023-03-21T13:38:33;17.20;99.90
14531;DHT22;7352;50.866;4.366;2023-03-21T13:41:13;17.30;99.90
14531;DHT22;7352;50.866;4.366;2023-03-21T13:43:43;17.00;99.90
14531;DHT22;7352;50.866;4.366;2023-03-21T13:46:15;17.00;99.90
14531;DHT22;7352;50.866;4.366;2023-03-21T13:49:04;17.10;99.90
14531;DHT22;7352;50.866;4.366;2023-03-21T13:51:44;17.30;99.90
14531;DHT22;7352;50.866;4.366;2023-03-21T13:54:47;17.20;99.90
14531;DHT22;7352;50.866;4.366;2023-03-21T13:57:35;17.20;99.90
14531;DHT22;7352;50.866;4.366;2023-03-21T14:00:23;17.00;99.90
14531;DHT22;7352;50.866;4.366;2023-03-21T14:02:58;17.00;99.90
14531;DHT22;7352;50.866;4.366;2023-03-21T14:05:27;16.70;99.90
14531;DHT22;7352;50.866;4.366;2023-03-21T14:07:56;16.60;99.90
14531;DHT22;7352;50.866;4.366;2023-03-21T14:10:28;16.40;99.90
14531;DHT22;7352;50.866;4.366;2023-03-21T14:12:57;16.50;99.90
14531;DHT22;7352;50.866;4.366;2023-03-21T14:15:28;16.60;99.90
14531;DHT22;7352;50.866;4.366;2023-03-21T14:18:01;16.60;99.90
14531;DHT22;7352;50.866;4.366;2023-03-21T14:20:30;16.60;99.90
14531;DHT22;7352;50.866;4.366;2023-03-21T14:22:58;16.40;99.90
14531;DHT22;7352;50.866;4.366;2023-03-21T14:25:32;16.40;99.90
14531;DHT22;7352;50.866;4.366;2023-03-21T14:28:02;16.50;99.90
14531;DHT22;7352;50.866;4.366;2023-03-21T14:30:32;16.40;99.90
14531;DHT22;7352;50.866;4.366;2023-03-21T14:33:06;16.40;99.90
14531;DHT22;7352;50.866;4.366;2023-03-21T14:35:36;16.40;99.90
14531;DHT22;7352;50.866;4.366;2023-03-21T14:38:19;16.20;99.90
14531;DHT22;7352;50.866;4.366;2023-03-21T14:40:48;16.20;99.90
14531;DHT22;7352;50.866;4.366;2023-03-21T14:43:17;16.30;99.90
14531;DHT22;7352;50.866;4.366;2023-03-21T14:45:47;16.20;99.90
14531;DHT22;7352;50.866;4.366;2023-03-21T14:48:16;16.00;99.90
14531;DHT22;7352;50.866;4.366;2023-03-21T14:50:45;16.00;99.90
14531;DHT22;7352;50.866;4.366;2023-03-21T14:53:17;15.80;99.90
14531;DHT22;7352;50.866;4.366;2023-03-21T14:55:48;15.70;99.90
14531;DHT22;7352;50.866;4.366;2023-03-21T14:58:16;15.70;99.90
14531;DHT22;7352;50.866;4.366;2023-03-21T15:00:47;15.80;99.90
14531;DHT22;7352;50.866;4.366;2023-03-21T15:03:17;15.90;99.90
14531;DHT22;7352;50.866;4.366;2023-03-21T15:05:45;16.20;99.90
14531;DHT22;7352;50.866;4.366;2023-03-21T15:08:14;16.40;99.90
14531;DHT22;7352;50.866;4.366;2023-03-21T15:10:45;16.50;99.90
14531;DHT22;7352;50.866;4.366;2023-03-21T15:13:21;16.40;99.90
14531;DHT22;7352;50.866;4.366;2023-03-21T15:15:48;16.20;99.90
14531;DHT22;7352;50.866;4.366;2023-03-21T15:18:21;16.20;99.90
14531;DHT22;7352;50.866;4.366;2023-03-21T15:20:51;16.00;99.90
14531;DHT22;7352;50.866;4.366;2023-03-21T15:23:25;15.80;99.90
14531;DHT22;7352;50.866;4.366;2023-03-21T15:25:53;15.70;99.90
14531;DHT22;7352;50.866;4.366;2023-03-21T15:28:20;15.70;99.90
14531;DHT22;7352;50.866;4.366;2023-03-21T15:30:48;15.70;99.90
14531;DHT22;7352;50.866;4.366;2023-03-21T15:33:28;15.70;99.90
14531;DHT22;7352;50.866;4.366;2023-03-21T15:35:57;15.90;99.90
14531;DHT22;7352;50.866;4.366;2023-03-21T15:38:29;16.00;99.90
14531;DHT22;7352;50.866;4.366;2023-03-21T15:41:21;15.90;99.90
14531;DHT22;7352;50.866;4.366;2023-03-21T15:44:01;15.90;99.90
14531;DHT22;7352;50.866;4.366;2023-03-21T15:46:33;15.80;99.90
14531;DHT22;7352;50.866;4.366;2023-03-21T15:49:22;15.80;99.90
14531;DHT22;7352;50.866;4.366;2023-03-21T15:51:52;15.60;99.90
14531;DHT22;7352;50.866;4.366;2023-03-21T15:54:26;15.60;99.90
14531;DHT22;7352;50.866;4.366;2023-03-21T15:56:54;15.40;99.90
14531;DHT22;7352;50.866;4.366;2023-03-21T15:59:32;15.40;99.90
14531;DHT22;7352;50.866;4.366;2023-03-21T16:02:11;15.30;99.90
14531;DHT22;7352;50.866;4.366;2023-03-21T16:05:20;15.20;99.90
14531;DHT22;7352;50.866;4.366;2023-03-21T16:07:50;15.30;99.90
14531;DHT22;7352;50.866;4.366;2023-03-21T16:10:25;15.30;99.90
14531;DHT22;7352;50.866;4.366;2023-03-21T16:12:54;15.20;99.90
14531;DHT22;7352;50.866;4.366;2023-03-21T16:15:22;15.20;99.90
14531;DHT22;7352;50.866;4.366;2023-03-21T16:17:52;15.10;99.90
14531;DHT22;7352;50.866;4.366;2023-03-21T16:20:25;15.10;99.90